Time;durP1;ratioP1;P1;durP2;ratioP2;P2;SDS_P1;SDS_P2;PMS_P1;PMS_P2;Temp;Humidity;BMP_temperature;BMP_pressure;BME280_temperature;BME280_humidity;BME280_pressure;Samples;Min_cycle;Max_cycle;Signal;HPM_P1;HPM_P2
2022/01/01 00:02:16;;;;;;;30.60;22.27;;;5.50;99.90;;;;;;4970386;28;20256;-78
2022/01/01 00:04:42;;;;;;;29.13;20.10;;;5.60;99.90;;;;;;4981834;28;20291;-78
2022/01/01 00:07:11;;;;;;;30.00;20.97;;;5.70;99.90;;;;;;4988344;28;20174;-78
2022/01/01 00:09:38;;;;;;;33.30;22.43;;;5.60;99.90;;;;;;4987510;28;20205;-77
2022/01/01 00:12:04;;;;;;;34.70;23.37;;;5.70;99.90;;;;;;4979436;28;20171;-78
2022/01/01 00:14:30;;;;;;;32.90;22.70;;;5.60;99.90;;;;;;4983739;28;20196;-77
2022/01/01 00:16:57;;;;;;;33.10;23.20;;;5.60;99.90;;;;;;4972629;28;20182;-79
2022/01/01 00:19:22;;;;;;;28.73;21.07;;;5.60;99.90;;;;;;4976536;28;20209;-79
2022/01/01 00:21:48;;;;;;;30.07;21.03;;;5.70;99.90;;;;;;4972519;28;20186;-79
2022/01/01 00:24:14;;;;;;;28.33;22.20;;;5.70;99.90;;;;;;4963419;28;20203;-78
2022/01/01 00:26:40;;;;;;;31.97;22.57;;;5.60;99.90;;;;;;4971623;28;20204;-78
2022/01/01 00:29:06;;;;;;;30.43;22.90;;;5.60;99.90;;;;;;4973857;28;20198;-79
2022/01/01 00:31:32;;;;;;;37.03;23.87;;;5.50;99.90;;;;;;4962731;28;20188;-77
2022/01/01 00:33:59;;;;;;;37.90;24.27;;;5.50;99.90;;;;;;4959053;28;20208;-79
2022/01/01 00:36:28;;;;;;;36.70;25.83;;;5.50;99.90;;;;;;4967538;28;20182;-79
2022/01/01 00:38:54;;;;;;;37.13;25.23;;;5.50;99.90;;;;;;4975091;28;20210;-79
2022/01/01 00:41:20;;;;;;;39.73;26.27;;;5.60;99.90;;;;;;4974979;28;20271;-79
2022/01/01 00:43:46;;;;;;;33.73;25.10;;;5.50;99.90;;;;;;4983103;28;20256;-78
2022/01/01 00:46:12;;;;;;;38.53;26.67;;;5.60;99.90;;;;;;4969240;28;20230;-79
2022/01/01 00:48:38;;;;;;;38.90;27.30;;;5.50;99.90;;;;;;4979883;28;20178;-78
2022/01/01 00:51:04;;;;;;;35.30;24.87;;;5.40;99.90;;;;;;4962527;28;20213;-75
2022/01/01 00:53:30;;;;;;;41.13;26.37;;;5.40;99.90;;;;;;4980684;28;20215;-79
2022/01/01 00:55:56;;;;;;;35.80;25.30;;;5.30;99.90;;;;;;4981894;28;20210;-78
2022/01/01 00:58:22;;;;;;;39.00;25.90;;;5.40;99.90;;;;;;5062543;23;20638;-78
2022/01/01 01:01:02;;;;;;;37.00;25.80;;;5.60;99.90;;;;;;5007031;28;20245;-80
2022/01/01 01:03:28;;;;;;;29.73;20.87;;;5.30;99.90;;;;;;5010561;28;20164;-80
2022/01/01 01:06:04;;;;;;;33.13;23.87;;;5.10;99.90;;;;;;5006342;28;20234;-81
2022/01/01 01:08:30;;;;;;;31.27;22.57;;;4.90;99.90;;;;;;5001746;28;20194;-79
2022/01/01 01:11:03;;;;;;;32.80;22.73;;;5.60;99.90;;;;;;4978595;28;20256;-80
2022/01/01 01:13:42;;;;;;;34.23;23.53;;;4.60;99.90;;;;;;5004137;28;20173;-81
2022/01/01 01:16:08;;;;;;;35.43;24.03;;;4.90;99.90;;;;;;5001056;28;20228;-81
2022/01/01 01:18:37;;;;;;;33.53;22.70;;;5.30;99.90;;;;;;4999716;28;20642;-79
2022/01/01 01:21:15;;;;;;;34.37;23.17;;;4.60;99.90;;;;;;5004180;28;20183;-80
2022/01/01 01:23:43;;;;;;;30.17;22.33;;;5.10;99.90;;;;;;5004112;28;20181;-80
2022/01/01 01:26:09;;;;;;;32.47;23.57;;;4.50;99.90;;;;;;4998228;28;20191;-79
2022/01/01 01:28:45;;;;;;;33.77;23.13;;;4.50;99.90;;;;;;5014628;28;20196;-82
2022/01/01 01:31:11;;;;;;;35.37;23.47;;;4.40;99.90;;;;;;5012910;28;20177;-80
2022/01/01 01:33:39;;;;;;;34.40;23.47;;;4.30;99.90;;;;;;4996216;28;20300;-80
2022/01/01 01:36:08;;;;;;;34.17;22.70;;;4.10;99.90;;;;;;4990091;28;20278;-81
2022/01/01 01:38:42;;;;;;;34.23;22.90;;;4.20;99.90;;;;;;5003241;28;20199;-78
2022/01/01 01:41:16;;;;;;;32.93;23.50;;;4.50;99.90;;;;;;5021044;28;20581;-81
2022/01/01 01:44:03;;;;;;;31.63;23.20;;;5.10;99.90;;;;;;5003819;28;20164;-80
2022/01/01 01:46:39;;;;;;;30.57;21.40;;;4.30;99.90;;;;;;4970900;28;20284;-79
2022/01/01 01:49:08;;;;;;;30.87;21.37;;;4.90;99.90;;;;;;4986461;28;20680;-80
2022/01/01 01:51:34;;;;;;;33.20;23.33;;;4.50;99.90;;;;;;5010242;28;20690;-79
2022/01/01 01:54:09;;;;;;;34.33;23.83;;;4.60;99.90;;;;;;4989816;28;20657;-79
2022/01/01 01:56:36;;;;;;;33.47;23.50;;;5.10;99.90;;;;;;4990763;28;20256;-79
2022/01/01 01:59:17;;;;;;;32.47;22.70;;;5.30;99.90;;;;;;4999035;28;20596;-79
2022/01/01 02:01:45;;;;;;;31.20;22.70;;;5.00;99.90;;;;;;4999769;28;20157;-79
2022/01/01 02:04:20;;;;;;;31.70;23.07;;;4.60;99.90;;;;;;5003764;28;20172;-79
2022/01/01 02:07:09;;;;;;;33.60;23.20;;;4.70;99.90;;;;;;5001119;28;20170;-79
2022/01/01 02:09:41;;;;;;;33.97;23.00;;;5.50;99.90;;;;;;5000188;28;20672;-80
2022/01/01 02:12:10;;;;;;;35.03;21.77;;;4.70;99.90;;;;;;4998802;28;20172;-80
2022/01/01 02:17:31;;;;;;;32.20;22.03;;;5.00;99.90;;;;;;5000647;28;20228;-80
2022/01/01 02:20:25;;;;;;;32.67;22.17;;;4.70;99.90;;;;;;5027786;28;20173;-80
2022/01/01 02:22:58;;;;;;;27.20;20.80;;;4.70;99.90;;;;;;4997243;28;20554;-80
2022/01/01 02:25:33;;;;;;;25.60;20.67;;;4.70;99.90;;;;;;5009951;28;20260;-80
2022/01/01 02:28:12;;;;;;;29.43;21.60;;;5.50;99.90;;;;;;5026870;28;20205;-79
2022/01/01 02:30:47;;;;;;;24.93;19.50;;;4.70;99.90;;;;;;5013041;28;20183;-79
2022/01/01 02:33:44;;;;;;;29.57;20.63;;;4.60;99.90;;;;;;5009839;28;20228;-80
2022/01/01 02:36:10;;;;;;;29.87;20.33;;;4.50;99.90;;;;;;4997757;28;20189;-80
2022/01/01 02:38:39;;;;;;;25.07;20.30;;;4.60;99.90;;;;;;5014375;28;20203;-79
2022/01/01 02:41:05;;;;;;;23.77;19.20;;;5.20;99.90;;;;;;5025021;28;20253;-80
2022/01/01 02:43:42;;;;;;;23.60;18.00;;;5.30;99.90;;;;;;5026154;28;20201;-79
2022/01/01 02:46:08;;;;;;;22.40;17.43;;;4.50;99.90;;;;;;5026133;28;20161;-79
2022/01/01 02:48:44;;;;;;;22.47;17.20;;;4.50;99.90;;;;;;5025168;28;20195;-78
2022/01/01 02:51:09;;;;;;;22.37;16.67;;;5.10;99.90;;;;;;5008857;28;20241;-79
2022/01/01 02:53:37;;;;;;;25.27;16.63;;;5.20;99.90;;;;;;5017637;28;20181;-79
2022/01/01 02:56:11;;;;;;;20.77;15.83;;;4.60;99.90;;;;;;4994855;28;20176;-78
2022/01/01 02:58:39;;;;;;;23.23;17.07;;;4.60;99.90;;;;;;5005379;28;20337;-79
2022/01/01 03:01:08;;;;;;;22.30;15.67;;;4.50;99.90;;;;;;5008031;28;20262;-79
2022/01/01 03:03:42;;;;;;;22.57;16.67;;;4.60;99.90;;;;;;5009816;28;20181;-80
2022/01/01 03:06:11;;;;;;;20.77;15.53;;;4.50;99.90;;;;;;5021295;28;20256;-79
2022/01/01 03:08:55;;;;;;;22.77;16.97;;;4.50;99.90;;;;;;5025566;28;20204;-79
2022/01/01 03:11:26;;;;;;;20.07;15.20;;;3.90;99.90;;;;;;5025534;28;20175;-79
2022/01/01 03:13:58;;;;;;;22.83;17.37;;;4.30;99.90;;;;;;5025869;28;20226;-80
2022/01/01 03:16:27;;;;;;;19.37;15.93;;;4.70;99.90;;;;;;5014256;28;20183;-80
2022/01/01 03:18:55;;;;;;;27.97;17.20;;;3.80;99.90;;;;;;5023839;28;20593;-80
2022/01/01 03:21:24;;;;;;;22.40;16.97;;;4.10;99.90;;;;;;4997886;28;20193;-80
2022/01/01 03:23:53;;;;;;;21.43;16.17;;;4.40;99.90;;;;;;5024017;28;20168;-79
2022/01/01 03:26:21;;;;;;;22.03;17.13;;;3.90;99.90;;;;;;5010865;28;20209;-81
2022/01/01 03:28:47;;;;;;;26.23;18.60;;;3.80;99.90;;;;;;5004857;28;20662;-81
2022/01/01 03:31:24;;;;;;;21.33;17.57;;;3.00;99.90;;;;;;5011020;28;20202;-79
2022/01/01 03:33:53;;;;;;;20.53;15.97;;;4.50;99.90;;;;;;5005755;28;20717;-79
2022/01/01 03:36:22;;;;;;;22.80;16.33;;;4.40;99.90;;;;;;5017489;28;20268;-80
2022/01/01 03:38:48;;;;;;;21.77;16.43;;;4.00;99.90;;;;;;5005831;28;20567;-80
2022/01/01 03:41:20;;;;;;;21.20;16.00;;;3.80;99.90;;;;;;4992759;28;20178;-81
2022/01/01 03:43:54;;;;;;;19.03;15.63;;;4.20;99.90;;;;;;5012060;28;20234;-80
2022/01/01 03:46:20;;;;;;;24.50;17.63;;;3.90;99.90;;;;;;4993448;28;20160;-79
2022/01/01 03:48:51;;;;;;;25.40;17.70;;;3.80;99.90;;;;;;5013350;28;20228;-79
2022/01/01 03:51:17;;;;;;;20.67;17.30;;;4.50;99.90;;;;;;5024230;28;20181;-80
2022/01/01 03:53:43;;;;;;;20.27;15.67;;;4.10;99.90;;;;;;5014766;28;20185;-79
2022/01/01 03:56:09;;;;;;;18.87;15.63;;;4.00;99.90;;;;;;5021607;28;20677;-79
2022/01/01 03:58:35;;;;;;;22.93;16.83;;;4.20;99.90;;;;;;5006774;28;20219;-79
2022/01/01 04:01:04;;;;;;;23.27;16.73;;;4.30;99.90;;;;;;5025074;28;20171;-80
2022/01/01 04:03:39;;;;;;;21.07;15.40;;;3.80;99.90;;;;;;5016204;28;20203;-80
2022/01/01 04:06:06;;;;;;;19.80;15.97;;;3.80;99.90;;;;;;5011527;28;20180;-78
2022/01/01 04:08:32;;;;;;;21.53;16.73;;;4.50;99.90;;;;;;5017404;28;20199;-80
2022/01/01 04:11:01;;;;;;;23.07;16.93;;;3.90;99.90;;;;;;5004785;28;20683;-79
2022/01/01 04:13:27;;;;;;;18.87;15.23;;;4.00;99.90;;;;;;5010009;28;20239;-80
2022/01/01 04:15:53;;;;;;;19.73;14.90;;;4.00;99.90;;;;;;5016917;28;20232;-80
2022/01/01 04:18:37;;;;;;;15.73;12.97;;;3.60;99.90;;;;;;5017755;28;20196;-80
2022/01/01 04:21:11;;;;;;;16.17;13.63;;;3.80;99.90;;;;;;4975353;28;20537;-80
2022/01/01 04:23:41;;;;;;;14.60;13.03;;;3.70;99.90;;;;;;5003721;28;20712;-80
2022/01/01 04:26:10;;;;;;;16.67;12.63;;;3.10;99.90;;;;;;5005443;28;20233;-79
2022/01/01 04:28:41;;;;;;;16.93;12.53;;;3.30;99.90;;;;;;5000417;28;20203;-80
2022/01/01 04:31:19;;;;;;;17.17;12.87;;;3.20;99.90;;;;;;5011166;28;20177;-80
2022/01/01 04:33:47;;;;;;;15.27;12.87;;;3.30;99.90;;;;;;5009604;28;20183;-80
2022/01/01 04:36:18;;;;;;;14.47;12.50;;;3.80;99.90;;;;;;5017241;28;20212;-80
2022/01/01 04:38:45;;;;;;;13.93;12.10;;;3.80;99.90;;;;;;5004307;28;20215;-79
2022/01/01 04:41:16;;;;;;;13.50;11.57;;;3.90;99.90;;;;;;5004897;28;20274;-79
2022/01/01 04:43:49;;;;;;;12.70;11.40;;;3.00;99.90;;;;;;5017359;28;20645;-80
2022/01/01 04:46:18;;;;;;;14.37;12.00;;;3.40;99.90;;;;;;5024703;28;20185;-80
2022/01/01 04:48:52;;;;;;;13.37;11.03;;;2.90;99.90;;;;;;4994588;28;20204;-79
2022/01/01 04:51:18;;;;;;;11.97;10.73;;;3.50;99.90;;;;;;5009283;28;20180;-79
2022/01/01 04:53:46;;;;;;;11.97;10.73;;;3.60;99.90;;;;;;5024207;28;20215;-80
2022/01/01 04:56:20;;;;;;;13.30;11.40;;;4.00;99.90;;;;;;5003127;28;20185;-80
2022/01/01 04:58:46;;;;;;;15.30;11.20;;;2.90;99.90;;;;;;4995034;28;20207;-80
2022/01/01 05:01:19;;;;;;;14.37;10.73;;;4.10;99.90;;;;;;5009538;28;20587;-80
2022/01/01 05:03:48;;;;;;;12.70;10.50;;;2.80;99.90;;;;;;4998598;28;20185;-80
2022/01/01 05:06:13;;;;;;;11.40;10.20;;;3.70;99.90;;;;;;5005906;28;20177;-80
2022/01/01 05:08:45;;;;;;;13.10;11.10;;;2.80;99.90;;;;;;5022947;28;20606;-80
2022/01/01 05:11:11;;;;;;;14.20;11.27;;;2.40;99.90;;;;;;5022214;28;20198;-80
2022/01/01 05:13:40;;;;;;;15.33;11.57;;;3.90;99.90;;;;;;5010709;28;20178;-79
2022/01/01 05:16:05;;;;;;;16.27;11.30;;;2.90;99.90;;;;;;5005289;28;20186;-80
2022/01/01 05:18:36;;;;;;;11.00;9.87;;;2.40;99.90;;;;;;5004909;28;20195;-79
2022/01/01 05:21:01;;;;;;;12.23;10.80;;;3.10;99.90;;;;;;5012605;28;20234;-80
2022/01/01 05:23:27;;;;;;;11.97;9.93;;;3.10;99.90;;;;;;5024075;28;20221;-80
2022/01/01 05:25:56;;;;;;;12.13;10.37;;;2.60;99.90;;;;;;5017912;28;20179;-79
2022/01/01 05:28:21;;;;;;;12.57;9.90;;;3.20;99.90;;;;;;5010346;28;20582;-79
2022/01/01 05:30:47;;;;;;;10.87;9.30;;;2.90;99.90;;;;;;4993080;28;20198;-80
2022/01/01 05:33:13;;;;;;;12.03;9.67;;;3.50;99.90;;;;;;5025578;28;20547;-80
2022/01/01 05:35:44;;;;;;;12.17;9.50;;;2.90;99.90;;;;;;5027840;28;20174;-79
2022/01/01 05:38:13;;;;;;;11.97;9.33;;;3.10;99.90;;;;;;5019183;28;20210;-79
2022/01/01 05:40:39;;;;;;;10.70;9.30;;;3.10;99.90;;;;;;5010044;28;20536;-79
2022/01/01 05:43:13;;;;;;;13.53;9.83;;;3.30;99.90;;;;;;5011036;28;20187;-79
2022/01/01 05:45:42;;;;;;;10.37;9.27;;;3.70;99.90;;;;;;4995882;28;20179;-81
2022/01/01 05:48:10;;;;;;;11.13;9.60;;;3.40;99.90;;;;;;5015467;28;20558;-80
2022/01/01 05:50:37;;;;;;;11.43;9.67;;;3.40;99.90;;;;;;4996627;28;20266;-80
2022/01/01 05:53:05;;;;;;;12.40;10.70;;;3.90;99.90;;;;;;5013413;28;20246;-80
2022/01/01 05:55:36;;;;;;;11.90;10.70;;;3.80;99.90;;;;;;5027611;28;20206;-80
2022/01/01 05:58:10;;;;;;;11.73;10.50;;;3.40;99.90;;;;;;5009130;28;20276;-80
2022/01/01 06:00:36;;;;;;;11.40;9.93;;;3.50;99.90;;;;;;4990839;28;20190;-80
2022/01/01 06:03:10;;;;;;;10.47;9.20;;;3.40;99.90;;;;;;5012965;28;20180;-79
2022/01/01 06:05:38;;;;;;;10.60;9.50;;;3.50;99.90;;;;;;5014644;28;20189;-80
2022/01/01 06:08:07;;;;;;;9.10;8.20;;;3.60;99.90;;;;;;5024373;28;20742;-80
2022/01/01 06:10:39;;;;;;;9.77;8.83;;;3.50;99.90;;;;;;5018697;28;20168;-79
2022/01/01 06:13:07;;;;;;;11.60;9.03;;;3.50;99.90;;;;;;5010170;28;20174;-80
2022/01/01 06:15:33;;;;;;;9.23;8.33;;;3.50;99.90;;;;;;5021750;28;20262;-80
2022/01/01 06:17:59;;;;;;;10.00;9.03;;;3.50;99.90;;;;;;5015558;28;20243;-80
2022/01/01 06:20:27;;;;;;;9.73;8.73;;;4.20;99.90;;;;;;5023364;28;20184;-80
2022/01/01 06:23:05;;;;;;;12.70;10.50;;;3.80;99.90;;;;;;5015383;28;20187;-80
2022/01/01 06:25:33;;;;;;;15.40;9.77;;;3.50;99.90;;;;;;5012388;28;20181;-80
2022/01/01 06:27:58;;;;;;;15.27;9.40;;;3.60;99.90;;;;;;4999672;28;20212;-80
2022/01/01 06:30:39;;;;;;;18.57;9.97;;;3.60;99.90;;;;;;5007595;28;20184;-79
2022/01/01 06:33:17;;;;;;;27.63;10.83;;;4.20;99.90;;;;;;5025466;28;20253;-80
2022/01/01 06:35:46;;;;;;;51.17;11.40;;;3.50;99.90;;;;;;5010494;28;20532;-80
2022/01/01 06:38:15;;;;;;;40.40;11.93;;;4.50;99.90;;;;;;4998714;28;20275;-80
2022/01/01 06:40:43;;;;;;;39.43;11.70;;;3.60;99.90;;;;;;4991148;28;20645;-80
2022/01/01 06:43:30;;;;;;;44.13;12.50;;;2.50;99.90;;;;;;5013612;28;20197;-79
2022/01/01 06:45:56;;;;;;;30.83;12.27;;;3.30;99.90;;;;;;4995555;28;20256;-80
2022/01/01 06:48:21;;;;;;;32.83;12.27;;;3.30;99.90;;;;;;4995571;28;20234;-80
2022/01/01 06:50:54;;;;;;;31.13;14.17;;;2.80;99.90;;;;;;4992529;28;20187;-80
2022/01/01 06:53:19;;;;;;;19.87;11.50;;;2.70;99.90;;;;;;4991702;28;20180;-79
2022/01/01 06:55:45;;;;;;;18.33;12.17;;;3.00;99.90;;;;;;5002892;28;20703;-79
2022/01/01 06:58:14;;;;;;;38.90;11.80;;;2.80;99.90;;;;;;5010246;28;20279;-79
2022/01/01 07:00:45;;;;;;;17.90;12.43;;;3.00;99.90;;;;;;4992105;28;20186;-79
2022/01/01 07:03:23;;;;;;;16.20;11.77;;;3.00;99.90;;;;;;5009815;28;20184;-79
2022/01/01 07:05:52;;;;;;;32.90;12.07;;;3.70;99.90;;;;;;5011334;28;20186;-79
2022/01/01 07:08:21;;;;;;;21.27;12.23;;;3.10;99.90;;;;;;5009531;28;20230;-79
2022/01/01 07:10:50;;;;;;;15.77;11.30;;;3.10;99.90;;;;;;5010215;28;20177;-81
2022/01/01 07:13:25;;;;;;;19.70;12.40;;;3.70;99.90;;;;;;4991024;28;20180;-80
2022/01/01 07:15:50;;;;;;;15.20;10.60;;;3.20;99.90;;;;;;5033195;23;20227;-75
2022/01/01 07:18:16;;;;;;;15.43;10.83;;;3.30;99.90;;;;;;4997667;28;20686;-74
2022/01/01 07:20:42;;;;;;;15.10;10.83;;;3.30;99.90;;;;;;5013480;28;20231;-76
2022/01/01 07:23:08;;;;;;;18.70;11.43;;;3.40;99.90;;;;;;4996290;28;20636;-75
2022/01/01 07:25:34;;;;;;;36.17;12.00;;;3.40;99.90;;;;;;4996313;28;20203;-76
2022/01/01 07:27:59;;;;;;;15.03;10.57;;;3.30;99.90;;;;;;5015796;28;20180;-74
2022/01/01 07:30:25;;;;;;;20.40;11.93;;;3.30;99.90;;;;;;4996857;28;20176;-75
2022/01/01 07:32:52;;;;;;;13.90;10.43;;;3.40;99.90;;;;;;5022054;28;20173;-74
2022/01/01 07:35:19;;;;;;;14.27;9.97;;;3.40;99.90;;;;;;4990447;28;20199;-74
2022/01/01 07:37:45;;;;;;;14.13;9.90;;;3.50;99.90;;;;;;4997209;28;20199;-75
2022/01/01 07:40:12;;;;;;;15.37;9.93;;;3.50;99.90;;;;;;5014601;28;20565;-75
2022/01/01 07:42:39;;;;;;;14.83;9.77;;;3.50;99.90;;;;;;5014418;28;20184;-75
2022/01/01 07:45:06;;;;;;;17.00;10.60;;;3.50;99.90;;;;;;4996857;28;20205;-75
2022/01/01 07:47:32;;;;;;;15.50;10.03;;;3.60;99.90;;;;;;5014379;28;20181;-76
2022/01/01 07:49:57;;;;;;;18.57;9.73;;;3.60;99.90;;;;;;4995833;28;20243;-74
2022/01/01 07:52:23;;;;;;;18.80;10.93;;;3.60;99.90;;;;;;5012264;28;20180;-74
2022/01/01 07:54:49;;;;;;;13.00;9.77;;;3.60;99.90;;;;;;5014292;28;20185;-75
2022/01/01 07:57:15;;;;;;;15.40;10.33;;;3.60;99.90;;;;;;5014225;28;20191;-76
2022/01/01 07:59:41;;;;;;;14.10;10.00;;;3.60;99.90;;;;;;5014392;28;20182;-75
2022/01/01 08:02:06;;;;;;;12.47;9.20;;;3.60;99.90;;;;;;5009554;28;20552;-76
2022/01/01 08:04:32;;;;;;;13.87;9.60;;;3.60;99.90;;;;;;5010098;28;20191;-75
2022/01/01 08:06:58;;;;;;;16.87;10.77;;;3.70;99.90;;;;;;5022149;28;20170;-74
2022/01/01 08:09:23;;;;;;;12.77;8.90;;;3.70;99.90;;;;;;5010240;28;20190;-76
2022/01/01 08:11:50;;;;;;;26.40;10.63;;;3.90;99.90;;;;;;5020785;28;20200;-75
2022/01/01 08:14:16;;;;;;;18.80;10.97;;;3.50;99.90;;;;;;4976878;28;20182;-75
2022/01/01 08:17:05;;;;;;;23.30;10.60;;;3.40;99.90;;;;;;4990461;28;20215;-76
2022/01/01 08:19:32;;;;;;;26.47;11.57;;;3.30;99.90;;;;;;5013945;28;20199;-74
2022/01/01 08:21:58;;;;;;;40.83;11.80;;;3.40;99.90;;;;;;5013141;28;20615;-74
2022/01/01 08:24:24;;;;;;;43.33;12.30;;;3.00;99.90;;;;;;5013688;28;20186;-74
2022/01/01 08:26:50;;;;;;;39.17;11.47;;;3.10;99.90;;;;;;4996123;28;20577;-74
2022/01/01 08:29:16;;;;;;;27.40;11.37;;;2.90;99.90;;;;;;4996583;28;20187;-74
2022/01/01 08:31:42;;;;;;;28.27;11.40;;;2.90;99.90;;;;;;5013056;28;20715;-76
2022/01/01 08:34:08;;;;;;;22.63;10.87;;;2.90;99.90;;;;;;5012929;28;20255;-75
2022/01/01 08:36:34;;;;;;;29.83;10.67;;;2.90;99.90;;;;;;5013595;28;20206;-76
2022/01/01 08:38:59;;;;;;;20.20;10.20;;;2.90;99.90;;;;;;5015347;28;20191;-77
2022/01/01 08:41:26;;;;;;;18.53;11.57;;;2.90;99.90;;;;;;5011868;28;20179;-76
2022/01/01 08:43:52;;;;;;;15.67;10.37;;;2.90;99.90;;;;;;4996372;28;20175;-76
2022/01/01 08:46:18;;;;;;;14.70;10.13;;;3.00;99.90;;;;;;4994893;28;20188;-74
2022/01/01 08:48:43;;;;;;;22.40;10.67;;;3.20;99.90;;;;;;4995128;28;20597;-74
2022/01/01 08:51:20;;;;;;;14.80;9.37;;;3.20;99.90;;;;;;4990669;28;20215;-76
2022/01/01 08:53:47;;;;;;;15.30;9.77;;;3.30;99.90;;;;;;5010445;28;20661;-76
2022/01/01 08:56:13;;;;;;;15.47;10.20;;;3.40;99.90;;;;;;4993190;28;20672;-77
2022/01/01 08:58:39;;;;;;;31.20;10.30;;;3.40;99.90;;;;;;5011386;28;20270;-74
2022/01/01 09:01:06;;;;;;;27.40;10.97;;;3.30;99.90;;;;;;5010335;28;20228;-76
2022/01/01 09:03:35;;;;;;;15.37;10.53;;;3.30;99.90;;;;;;5008807;28;20177;-75
2022/01/01 09:06:01;;;;;;;14.07;10.63;;;3.20;99.90;;;;;;4995335;28;20206;-73
2022/01/01 09:08:27;;;;;;;13.70;10.00;;;3.40;99.90;;;;;;5002994;28;20229;-74
2022/01/01 09:10:53;;;;;;;11.97;9.47;;;3.50;99.90;;;;;;4995692;28;20326;-75
2022/01/01 09:13:18;;;;;;;11.77;9.47;;;3.60;99.90;;;;;;4995701;28;20717;-75
2022/01/01 09:15:44;;;;;;;14.50;9.67;;;3.70;99.90;;;;;;4993582;28;21767;-76
2022/01/01 09:18:09;;;;;;;19.30;10.77;;;3.80;99.90;;;;;;5010416;28;20196;-76
2022/01/01 09:20:35;;;;;;;21.17;11.47;;;3.90;99.90;;;;;;5010780;28;20270;-76
2022/01/01 09:23:01;;;;;;;20.07;11.57;;;3.80;99.90;;;;;;5011902;28;20547;-76
2022/01/01 09:25:26;;;;;;;32.83;9.90;;;3.80;99.90;;;;;;5012215;28;21053;-76
2022/01/01 09:27:52;;;;;;;19.63;11.03;;;3.80;99.90;;;;;;5011643;28;20188;-77
2022/01/01 09:30:18;;;;;;;18.43;11.03;;;3.80;99.90;;;;;;4995083;28;20223;-77
2022/01/01 09:32:44;;;;;;;15.17;10.70;;;4.00;99.90;;;;;;5013427;28;20588;-75
2022/01/01 09:35:11;;;;;;;14.00;9.83;;;4.10;99.90;;;;;;5016422;28;20213;-77
2022/01/01 09:37:36;;;;;;;16.17;10.37;;;4.00;99.90;;;;;;5012777;28;20177;-76
2022/01/01 09:40:03;;;;;;;13.80;10.50;;;4.10;99.90;;;;;;5013436;28;20591;-75
2022/01/01 09:42:30;;;;;;;16.73;10.83;;;4.20;99.90;;;;;;5008740;28;20202;-75
2022/01/01 09:44:58;;;;;;;16.20;10.47;;;4.20;99.90;;;;;;4992960;28;20216;-78
2022/01/01 09:47:25;;;;;;;20.47;12.50;;;4.30;99.90;;;;;;5011526;28;20630;-75
2022/01/01 09:49:51;;;;;;;18.53;12.33;;;4.30;99.90;;;;;;4993424;28;20210;-76
2022/01/01 09:52:17;;;;;;;21.23;12.40;;;4.30;99.90;;;;;;4993216;28;20222;-76
2022/01/01 09:54:43;;;;;;;22.27;14.37;;;4.30;99.90;;;;;;5011392;28;20723;-74
2022/01/01 09:57:10;;;;;;;31.23;13.70;;;4.40;99.90;;;;;;5011126;28;20188;-76
2022/01/01 09:59:38;;;;;;;24.77;14.70;;;4.40;99.90;;;;;;4994773;28;20671;-75
2022/01/01 10:02:03;;;;;;;24.37;14.43;;;4.20;99.90;;;;;;5011905;28;20314;-74
2022/01/01 10:04:41;;;;;;;28.23;15.20;;;4.20;99.90;;;;;;5012193;28;20231;-75
2022/01/01 10:07:07;;;;;;;29.17;15.27;;;4.20;99.90;;;;;;5006517;28;20713;-76
2022/01/01 10:09:35;;;;;;;27.20;15.00;;;4.40;99.90;;;;;;5012312;28;20188;-76
2022/01/01 10:12:01;;;;;;;35.33;16.87;;;4.40;99.90;;;;;;4995182;28;20192;-75
2022/01/01 10:14:38;;;;;;;31.70;16.53;;;4.50;99.90;;;;;;5026201;28;20185;-76
2022/01/01 10:17:15;;;;;;;27.30;16.67;;;4.40;99.90;;;;;;4998009;28;20250;-75
2022/01/01 10:19:41;;;;;;;32.07;17.13;;;4.40;99.90;;;;;;4988793;28;20204;-75
2022/01/01 10:22:11;;;;;;;34.87;17.07;;;4.40;99.90;;;;;;4992771;28;20183;-75
2022/01/01 10:30:07;;;;;;;43.90;18.23;;;4.40;99.90;;;;;;4996637;28;20233;-75
2022/01/01 10:32:32;;;;;;;57.13;18.83;;;4.30;99.90;;;;;;5006073;28;20184;-75
2022/01/01 10:34:59;;;;;;;37.90;17.80;;;4.40;99.90;;;;;;4985520;28;20212;-74
2022/01/01 10:37:28;;;;;;;42.53;19.87;;;4.40;99.90;;;;;;4987200;28;20191;-76
2022/01/01 10:39:55;;;;;;;35.47;19.40;;;4.40;99.90;;;;;;4992830;28;20177;-75
2022/01/01 10:42:21;;;;;;;29.07;17.90;;;4.40;99.90;;;;;;5003604;28;20261;-76
2022/01/01 10:44:52;;;;;;;27.20;17.57;;;4.50;99.90;;;;;;4999536;28;20660;-75
2022/01/01 10:47:24;;;;;;;25.07;15.73;;;4.60;99.90;;;;;;5003301;28;20198;-76
2022/01/01 10:50:35;;;;;;;25.00;16.83;;;4.70;99.90;;;;;;4996879;28;20208;-76
2022/01/01 10:52:36;;;;;;;24.77;16.57;;;4.90;99.90;;;;;;4988503;28;20206;-76
2022/01/01 10:55:06;;;;;;;22.67;15.80;;;5.00;99.90;;;;;;4991095;28;20196;-76
2022/01/01 10:57:37;;;;;;;22.13;15.17;;;5.10;99.90;;;;;;5003035;28;20183;-75
2022/01/01 11:00:26;;;;;;;21.70;15.07;;;5.20;99.90;;;;;;4987667;28;20181;-75
2022/01/01 11:02:55;;;;;;;22.87;16.10;;;5.30;99.90;;;;;;4977885;28;20175;-75
2022/01/01 11:05:27;;;;;;;25.00;16.93;;;5.60;99.90;;;;;;4995325;28;20224;-75
2022/01/01 11:07:53;;;;;;;26.00;17.20;;;5.60;99.90;;;;;;4994685;28;20543;-76
2022/01/01 11:10:21;;;;;;;25.67;17.23;;;5.30;99.90;;;;;;4993386;28;20187;-76
2022/01/01 11:12:47;;;;;;;29.43;18.20;;;5.40;99.90;;;;;;4994080;28;20272;-73
2022/01/01 11:15:13;;;;;;;28.37;18.87;;;5.60;99.90;;;;;;5006115;28;20296;-76
2022/01/01 11:17:40;;;;;;;32.87;20.97;;;5.50;99.90;;;;;;5014156;28;20181;-79
2022/01/01 11:20:07;;;;;;;29.50;18.87;;;5.50;99.90;;;;;;5016723;28;20262;-76
2022/01/01 11:22:33;;;;;;;33.47;19.53;;;5.60;99.90;;;;;;4998046;28;20612;-75
2022/01/01 11:25:00;;;;;;;28.80;18.63;;;5.70;99.90;;;;;;4997634;28;20206;-74
2022/01/01 11:27:27;;;;;;;31.27;20.17;;;5.80;99.90;;;;;;4997428;28;20596;-76
2022/01/01 11:29:56;;;;;;;30.80;19.00;;;5.90;99.90;;;;;;5021778;28;20664;-75
2022/01/01 11:33:00;;;;;;;26.47;18.10;;;6.00;99.90;;;;;;5015718;28;20173;-76
2022/01/01 11:35:38;;;;;;;27.33;17.07;;;6.00;99.90;;;;;;4994897;28;20556;-76
2022/01/01 11:38:12;;;;;;;28.93;18.10;;;6.00;99.90;;;;;;5014203;28;20203;-76
2022/01/01 11:41:03;;;;;;;26.70;17.30;;;6.20;99.90;;;;;;4998099;28;20198;-74
2022/01/01 11:43:46;;;;;;;27.70;17.27;;;6.30;99.90;;;;;;4994645;28;20179;-79
2022/01/01 11:46:21;;;;;;;30.37;19.37;;;6.30;99.90;;;;;;4997367;28;20200;-77
2022/01/01 11:49:04;;;;;;;30.97;19.67;;;6.40;99.90;;;;;;5011502;28;20173;-76
2022/01/01 11:51:32;;;;;;;33.57;19.37;;;6.30;99.90;;;;;;5013151;28;20185;-76
2022/01/01 11:54:20;;;;;;;34.57;19.70;;;6.40;99.90;;;;;;5013558;28;20236;-76
2022/01/01 11:56:49;;;;;;;38.10;22.20;;;6.40;99.90;;;;;;5013421;28;20195;-78
2022/01/01 11:59:23;;;;;;;33.57;20.93;;;6.60;99.90;;;;;;4995818;28;20213;-76
2022/01/01 12:01:51;;;;;;;34.70;21.50;;;6.60;99.90;;;;;;5014854;28;20170;-76
2022/01/01 12:04:35;;;;;;;34.53;20.37;;;6.60;99.90;;;;;;5013997;28;20227;-75
2022/01/01 12:07:11;;;;;;;38.10;22.47;;;6.60;99.90;;;;;;5012937;28;20186;-76
2022/01/01 12:10:01;;;;;;;37.07;21.33;;;6.70;99.90;;;;;;5012816;28;20585;-76
2022/01/01 12:12:53;;;;;;;33.80;21.60;;;6.80;99.90;;;;;;5011980;28;20178;-75
2022/01/01 12:15:29;;;;;;;35.67;21.80;;;6.80;99.90;;;;;;4996408;28;20287;-75
2022/01/01 12:23:25;;;;;;;39.30;23.10;;;6.80;99.90;;;;;;5464087;23;20889;-77
2022/01/01 12:25:52;;;;;;;39.47;23.00;;;6.80;99.90;;;;;;4991752;28;20234;-78
2022/01/01 12:28:26;;;;;;;39.23;22.83;;;6.80;99.90;;;;;;4991696;28;20191;-78
2022/01/01 12:30:55;;;;;;;37.17;23.73;;;6.90;99.90;;;;;;5002048;28;20177;-78
2022/01/01 12:33:27;;;;;;;40.07;23.67;;;7.00;99.90;;;;;;4985671;28;20208;-78
2022/01/01 12:35:55;;;;;;;36.37;22.53;;;7.10;99.90;;;;;;4998836;28;20181;-79
2022/01/01 12:38:27;;;;;;;37.10;22.10;;;7.20;99.90;;;;;;5004632;28;20209;-79
2022/01/01 12:41:06;;;;;;;36.87;22.47;;;7.20;99.90;;;;;;4988921;28;20176;-78
2022/01/01 12:43:41;;;;;;;36.87;23.30;;;7.30;99.90;;;;;;4989678;28;20277;-78
2022/01/01 12:46:08;;;;;;;39.50;23.77;;;7.40;99.90;;;;;;4991388;28;20174;-77
2022/01/01 12:48:37;;;;;;;52.10;28.70;;;7.40;99.90;;;;;;4993396;28;20259;-79
2022/01/01 12:51:06;;;;;;;48.33;28.40;;;7.50;99.90;;;;;;5009264;28;20254;-77
2022/01/01 12:53:37;;;;;;;40.90;25.80;;;7.50;99.90;;;;;;4994571;28;20199;-79
2022/01/01 12:56:11;;;;;;;43.87;25.20;;;7.50;99.90;;;;;;4992307;28;20663;-80
2022/01/01 12:58:47;;;;;;;39.13;23.60;;;7.60;99.90;;;;;;4990776;28;20205;-78
2022/01/01 13:01:25;;;;;;;40.17;23.47;;;7.60;99.90;;;;;;5010088;28;20171;-78
2022/01/01 13:03:56;;;;;;;43.03;25.60;;;7.50;99.90;;;;;;4999027;28;20198;-78
2022/01/01 13:06:26;;;;;;;40.43;24.37;;;7.60;99.90;;;;;;4999599;28;20651;-78